Time;durP1;ratioP1;P1;durP2;ratioP2;P2;SDS_P1;SDS_P2;PMS_P1;PMS_P2;Temp;Humidity;BMP_temperature;BMP_pressure;BME280_temperature;BME280_humidity;BME280_pressure;Samples;Min_cycle;Max_cycle;Signal;HPM_P1;HPM_P2
2023/08/07 00:16:32;;;;;;;4.93;4.13;;;13.70;1.00;;;;;;3330815;26;20482;-93
2023/08/07 00:19:16;;;;;;;4.00;3.33;;;14.90;1.00;;;;;;5174345;23;20505;-94
2023/08/07 00:22:10;;;;;;;4.10;3.70;;;14.80;1.00;;;;;;4981318;28;20553;-93
2023/08/07 00:24:55;;;;;;;3.50;3.20;;;16.20;1.00;;;;;;4964110;29;20455;-94
2023/08/07 00:30:37;;;;;;;3.93;3.50;;;14.80;1.00;;;;;;4975097;29;20530;-93
2023/08/07 00:49:08;;;;;;;6.40;3.73;;;14.90;95.20;;;;;;4908775;29;20904;-91
2023/08/07 00:55:41;;;;;;;6.33;4.67;;;14.90;99.90;;;;;;4915746;29;20455;-91
2023/08/07 00:59:07;;;;;;;4.10;3.73;;;14.90;99.90;;;;;;4900106;29;20550;-92
2023/08/07 01:02:11;;;;;;;4.43;4.00;;;14.90;99.90;;;;;;4922193;29;20479;-92
2023/08/07 01:47:30;;;;;;;3.93;3.53;;;14.90;1.00;;;;;;4959497;28;20530;-91
2023/08/07 01:50:21;;;;;;;4.03;3.60;;;14.90;1.00;;;;;;4962565;29;20490;-90
2023/08/07 02:20:59;;;;;;;5.53;5.00;;;14.70;59.60;;;;;;4940309;29;20489;-92
2023/08/07 02:23:41;;;;;;;6.70;4.30;;;14.90;54.60;;;;;;4978954;28;20438;-92
2023/08/07 02:26:15;;;;;;;5.77;4.73;;;;;;;;;;4980097;28;20418;-92
2023/08/07 02:29:09;;;;;;;7.10;4.70;;;14.90;40.70;;;;;;4980807;28;20441;-92
2023/08/07 02:41:06;;;;;;;7.03;6.00;;;14.90;99.90;;;;;;4938016;28;20561;-93
2023/08/07 02:47:02;;;;;;;12.17;7.37;;;14.90;99.90;;;;;;4921589;29;20437;-93
2023/08/07 02:49:35;;;;;;;12.90;9.10;;;14.80;99.90;;;;;;4921209;29;20457;-93
2023/08/07 02:52:07;;;;;;;8.97;7.90;;;;;;;;;;4980354;28;20439;-92
2023/08/07 02:54:53;;;;;;;11.50;9.60;;;15.00;99.90;;;;;;4980004;28;20460;-92
2023/08/07 02:57:46;;;;;;;;;;;;;;;;;;;;;
2023/08/07 03:04:42;;;;;;;8.73;7.83;;;15.10;99.90;;;;;;4979252;28;20474;-93
2023/08/07 03:07:19;;;;;;;11.80;7.00;;;15.20;99.90;;;;;;4977907;28;20454;-93
2023/08/07 03:09:49;;;;;;;8.87;7.83;;;;;;;;;;4979484;28;20506;-92
2023/08/07 03:12:23;;;;;;;8.50;6.77;;;;;;;;;;4978890;28;20443;-92
2023/08/07 03:14:55;;;;;;;7.10;6.37;;;15.10;99.90;;;;;;4979537;28;20550;-92
2023/08/07 03:17:30;;;;;;;8.97;5.80;;;15.10;99.90;;;;;;4979690;28;20470;-93
2023/08/07 03:20:10;;;;;;;9.73;5.80;;;15.20;99.90;;;;;;4979077;28;20462;-92
2023/08/07 03:22:40;;;;;;;5.93;5.37;;;;;;;;;;4976821;28;20410;-92
2023/08/07 03:25:25;;;;;;;6.40;5.60;;;15.20;99.90;;;;;;4978866;29;20474;-92
2023/08/07 03:33:58;;;;;;;8.63;6.07;;;15.10;99.90;;;;;;4967611;28;20497;-93
2023/08/07 03:36:37;;;;;;;6.70;6.10;;;15.20;99.90;;;;;;4980020;28;20454;-93
2023/08/07 03:39:24;;;;;;;7.33;5.50;;;15.10;99.90;;;;;;4979875;28;20446;-92
2023/08/07 03:42:26;;;;;;;6.30;5.70;;;15.20;99.90;;;;;;4979655;28;20498;-92
2023/08/07 03:45:20;;;;;;;6.73;6.13;;;15.10;99.90;;;;;;4979845;28;20439;-93
2023/08/07 03:51:25;;;;;;;8.23;7.00;;;15.20;99.90;;;;;;4958141;28;20435;-93
2023/08/07 03:54:02;;;;;;;6.77;6.03;;;15.00;99.90;;;;;;4977359;28;20477;-93
2023/08/07 03:56:36;;;;;;;11.53;7.53;;;15.10;99.90;;;;;;4977499;29;20433;-93
2023/08/07 03:59:09;;;;;;;7.20;6.40;;;15.20;99.90;;;;;;4978834;29;20466;-93
2023/08/07 04:01:38;;;;;;;9.70;6.13;;;;;;;;;;4978369;28;20547;-92
2023/08/07 04:04:05;;;;;;;7.83;6.40;;;;;;;;;;4979273;28;20465;-92
2023/08/07 04:06:33;;;;;;;7.00;6.30;;;;;;;;;;4977336;28;20450;-92
2023/08/07 04:09:13;;;;;;;7.63;6.30;;;15.30;99.90;;;;;;4978843;28;20482;-91
2023/08/07 04:11:51;;;;;;;9.33;6.30;;;15.10;99.90;;;;;;4978817;28;20427;-92
2023/08/07 04:30:54;;;;;;;6.17;5.50;;;15.20;99.90;;;;;;4415599;23;20508;-94
2023/08/07 04:37:02;;;;;;;6.80;6.00;;;15.30;99.90;;;;;;4935600;28;20427;-92
2023/08/07 04:44:40;;;;;;;7.93;5.07;;;;;;;;;;4992465;23;20485;-92
2023/08/07 04:47:29;;;;;;;8.23;5.70;;;15.30;99.90;;;;;;4973104;29;20469;-94
2023/08/07 04:50:23;;;;;;;6.00;4.63;;;15.40;99.90;;;;;;4979501;28;20430;-92
2023/08/07 04:56:18;;;;;;;5.53;5.03;;;15.50;99.90;;;;;;4953355;29;20496;-92
2023/08/07 04:58:55;;;;;;;5.47;4.97;;;;;;;;;;4982408;28;20389;-92
2023/08/07 05:04:21;;;;;;;8.87;4.57;;;15.40;1.00;;;;;;4980872;28;20482;-91
2023/08/07 05:06:51;;;;;;;10.90;4.70;;;15.70;99.90;;;;;;4981869;28;20447;-93
2023/08/07 05:09:42;;;;;;;7.30;5.00;;;15.50;1.00;;;;;;5065621;23;20549;-93
2023/08/07 05:24:50;;;;;;;4.97;3.50;;;15.40;1.00;;;;;;4902950;29;20584;-93
2023/08/07 05:27:47;;;;;;;3.60;3.30;;;15.40;1.00;;;;;;4979125;28;20454;-92
2023/08/07 05:36:58;;;;;;;5.73;3.67;;;15.50;1.00;;;;;;4979732;28;20439;-94
2023/08/07 05:39:40;;;;;;;4.23;3.93;;;15.50;1.00;;;;;;4981294;28;20439;-93
2023/08/07 05:42:32;;;;;;;4.10;3.67;;;15.50;1.00;;;;;;4979349;29;20989;-93
2023/08/07 05:45:08;;;;;;;6.53;4.60;;;15.50;1.00;;;;;;4976738;29;20546;-93
2023/08/07 05:51:31;;;;;;;4.77;4.13;;;15.50;99.90;;;;;;4977117;28;20432;-93
2023/08/07 06:00:58;;;;;;;4.07;3.77;;;15.70;1.00;;;;;;4934091;29;20460;-93
2023/08/07 06:03:44;;;;;;;4.90;3.93;;;14.40;1.00;;;;;;4975920;28;20522;-93
2023/08/07 06:06:14;;;;;;;5.60;4.23;;;;;;;;;;4974771;28;20537;-92
2023/08/07 06:09:06;;;;;;;4.20;3.70;;;15.80;99.90;;;;;;4972473;29;20611;-92
2023/08/07 06:12:06;;;;;;;6.40;5.00;;;15.90;1.00;;;;;;4974411;28;20452;-92
2023/08/07 06:15:19;;;;;;;4.23;3.47;;;16.00;1.00;;;;;;4974258;29;20495;-92
2023/08/07 06:21:05;;;;;;;9.00;3.97;;;16.00;99.90;;;;;;4944268;29;20516;-94
2023/08/07 06:23:51;;;;;;;4.40;3.10;;;16.20;99.90;;;;;;4972645;29;20442;-93
2023/08/07 06:26:23;;;;;;;5.33;4.57;;;;;;;;;;4969091;29;20458;-92
2023/08/07 06:28:54;;;;;;;8.63;4.00;;;16.30;1.00;;;;;;4968744;29;20490;-93
2023/08/07 06:31:26;;;;;;;4.90;4.50;;;16.20;99.90;;;;;;4972335;28;20458;-92
2023/08/07 06:33:54;;;;;;;4.27;3.47;;;;;;;;;;4966518;29;20474;-94
2023/08/07 06:36:45;;;;;;;;;;;;;;;;;;;;;
2023/08/07 06:39:13;;;;;;;6.50;3.40;;;16.50;1.00;;;;;;4977256;29;20455;-91
2023/08/07 06:41:55;;;;;;;3.50;2.50;;;16.50;99.90;;;;;;4975808;29;20490;-94
2023/08/07 06:47:19;;;;;;;2.93;2.73;;;17.80;99.90;;;;;;4921440;29;20456;-92
2023/08/07 06:50:28;;;;;;;3.40;3.10;;;16.70;24.00;;;;;;4970685;29;20435;-92
2023/08/07 06:52:58;;;;;;;3.40;3.10;;;;;;;;;;4970864;29;20447;-93
2023/08/07 06:55:26;;;;;;;6.87;3.80;;;;;;;;;;4970255;29;20510;-94
2023/08/07 06:58:05;;;;;;;3.80;3.10;;;16.80;1.00;;;;;;4966872;29;20455;-93
2023/08/07 07:00:57;;;;;;;3.37;3.07;;;16.90;36.10;;;;;;4970019;29;21025;-94
2023/08/07 07:03:46;;;;;;;4.00;3.43;;;17.00;1.00;;;;;;4972767;29;20500;-94
2023/08/07 07:06:25;;;;;;;3.17;2.90;;;17.00;1.00;;;;;;4978307;28;20435;-94
2023/08/07 07:09:27;;;;;;;4.80;3.43;;;17.10;1.00;;;;;;4979560;28;20482;-94
2023/08/07 07:12:03;;;;;;;3.50;2.97;;;;;;;;;;4957637;29;20464;-93
2023/08/07 07:14:44;;;;;;;3.87;3.10;;;17.20;1.00;;;;;;4970566;29;20483;-93
2023/08/07 07:17:33;;;;;;;4.97;2.73;;;17.30;1.00;;;;;;4969091;29;20459;-92
2023/08/07 07:20:21;;;;;;;4.10;3.10;;;17.40;1.00;;;;;;4977099;28;20484;-92
2023/08/07 07:23:14;;;;;;;6.90;2.67;;;17.40;1.00;;;;;;4971597;29;20978;-94
2023/08/07 07:25:54;;;;;;;3.00;2.40;;;17.40;99.90;;;;;;4972255;28;20487;-94
2023/08/07 07:28:25;;;;;;;3.07;2.60;;;17.40;1.00;;;;;;4979821;28;20449;-93
2023/08/07 07:31:10;;;;;;;4.10;2.87;;;17.30;99.90;;;;;;4977995;28;20515;-93
2023/08/07 07:33:48;;;;;;;3.30;2.37;;;17.40;99.90;;;;;;4975402;28;20452;-93
2023/08/07 07:36:29;;;;;;;;;;;;;;;;;;;;;
2023/08/07 07:39:12;;;;;;;3.10;2.23;;;17.50;99.90;;;;;;4973026;29;20444;-95
2023/08/07 07:41:47;;;;;;;5.20;2.70;;;;;;;;;;4969427;29;20536;-94
2023/08/07 07:44:19;;;;;;;2.77;2.53;;;17.50;99.90;;;;;;4969865;29;20465;-93
2023/08/07 07:47:10;;;;;;;3.60;2.77;;;17.50;99.90;;;;;;4970439;29;20449;-94
2023/08/07 07:50:13;;;;;;;5.00;2.33;;;17.50;1.00;;;;;;4969533;29;20479;-94
2023/08/07 07:53:08;;;;;;;4.30;2.23;;;17.40;8.80;;;;;;4973460;29;20441;-92
2023/08/07 07:56:00;;;;;;;6.00;2.27;;;17.60;38.20;;;;;;4918424;29;20494;-93
2023/08/07 08:02:33;;;;;;;5.43;2.40;;;17.70;1.00;;;;;;4963303;28;20507;-94
2023/08/07 08:05:31;;;;;;;4.63;2.67;;;17.70;1.00;;;;;;4975755;28;20541;-95
2023/08/07 08:11:46;;;;;;;4.53;2.70;;;17.70;99.90;;;;;;4954825;28;20457;-93
2023/08/07 08:14:25;;;;;;;3.93;2.63;;;17.70;1.00;;;;;;4976582;29;20493;-94
2023/08/07 08:17:22;;;;;;;3.80;2.17;;;17.60;1.00;;;;;;4980985;28;20445;-93
2023/08/07 08:20:29;;;;;;;4.43;2.90;;;17.80;1.00;;;;;;4981748;28;20429;-93
2023/08/07 08:26:32;;;;;;;3.37;2.57;;;17.70;99.90;;;;;;4978645;28;20452;-93
2023/08/07 08:36:00;;;;;;;3.70;3.40;;;17.70;1.00;;;;;;4947190;28;20473;-93
2023/08/07 08:38:47;;;;;;;5.67;3.17;;;17.60;1.00;;;;;;4980703;28;20960;-93
2023/08/07 08:41:36;;;;;;;2.83;2.50;;;17.60;99.30;;;;;;4981150;28;20442;-94
2023/08/07 08:47:37;;;;;;;2.97;2.77;;;17.90;99.90;;;;;;4977171;29;20440;-94
2023/08/07 08:51:00;;;;;;;3.37;2.53;;;18.10;99.90;;;;;;4979524;28;20449;-93
2023/08/07 08:54:09;;;;;;;3.23;2.93;;;18.10;15.20;;;;;;4973151;29;20461;-93
2023/08/07 09:00:01;;;;;;;3.90;2.30;;;18.30;1.00;;;;;;4979300;28;20445;-93
2023/08/07 09:09:12;;;;;;;5.70;2.63;;;17.40;99.90;;;;;;4974630;28;20434;-93
2023/08/07 09:11:48;;;;;;;2.90;2.70;;;18.40;1.00;;;;;;4981913;28;20464;-93
2023/08/07 09:14:39;;;;;;;2.90;2.60;;;18.50;1.00;;;;;;4982027;28;20492;-92
2023/08/07 09:17:25;;;;;;;3.37;2.80;;;18.50;1.00;;;;;;4981376;28;20438;-92
2023/08/07 09:26:42;;;;;;;;;;;;;;;;;;;;;
2023/08/07 09:29:50;;;;;;;4.30;3.07;;;17.50;99.90;;;;;;4979550;28;20450;-93
2023/08/07 09:35:42;;;;;;;3.50;3.10;;;16.80;1.00;;;;;;4976744;28;20484;-94
2023/08/07 09:38:34;;;;;;;3.80;3.40;;;16.80;1.00;;;;;;4981805;28;20421;-93
2023/08/07 09:41:39;;;;;;;9.20;3.60;;;16.90;99.90;;;;;;4981610;28;20443;-93
2023/08/07 09:47:36;;;;;;;2.90;2.70;;;17.20;5.10;;;;;;4949163;28;20480;-92
2023/08/07 09:50:30;;;;;;;2.90;2.60;;;17.10;99.90;;;;;;4979780;29;20468;-93
2023/08/07 09:53:16;;;;;;;3.70;3.30;;;17.40;1.00;;;;;;4918793;29;20480;-93
2023/08/07 09:56:08;;;;;;;3.03;2.80;;;17.50;1.00;;;;;;4977018;28;20489;-92
2023/08/07 09:59:08;;;;;;;2.77;2.67;;;17.60;1.00;;;;;;4977168;28;20470;-93
2023/08/07 10:01:50;;;;;;;2.73;2.53;;;17.70;99.90;;;;;;4976415;28;20453;-93
2023/08/07 10:04:42;;;;;;;4.60;2.67;;;17.70;1.00;;;;;;4976656;29;20492;-93
2023/08/07 10:07:55;;;;;;;;;;;;;;;;;;;;;
2023/08/07 10:11:00;;;;;;;8.70;2.50;;;17.90;1.00;;;;;;4981035;28;20466;-93
2023/08/07 10:13:39;;;;;;;3.80;2.33;;;17.80;1.00;;;;;;4981068;28;20432;-94
2023/08/07 10:16:57;;;;;;;2.53;2.30;;;18.00;99.90;;;;;;4979791;28;20458;-94
2023/08/07 10:19:49;;;;;;;2.03;1.83;;;18.10;99.90;;;;;;4978045;29;20450;-94
2023/08/07 10:22:31;;;;;;;2.87;2.23;;;18.20;1.00;;;;;;4980914;28;20437;-93
2023/08/07 10:25:27;;;;;;;2.33;1.93;;;18.10;1.00;;;;;;4980793;28;20492;-93
2023/08/07 10:28:40;;;;;;;3.43;2.40;;;19.00;99.90;;;;;;4978146;28;20518;-93
2023/08/07 10:31:29;;;;;;;2.93;2.20;;;18.30;1.00;;;;;;4917133;29;20417;-94
2023/08/07 10:37:11;;;;;;;2.50;1.90;;;18.50;99.90;;;;;;4917700;29;20863;-94
2023/08/07 10:40:21;;;;;;;2.27;2.00;;;18.70;99.90;;;;;;4921099;29;20453;-94
2023/08/07 10:43:29;;;;;;;1.60;1.50;;;18.50;99.90;;;;;;4905532;29;20952;-94
2023/08/07 10:46:19;;;;;;;2.60;1.83;;;18.70;1.00;;;;;;4918981;29;20471;-94
2023/08/07 10:49:14;;;;;;;3.13;1.97;;;18.70;1.00;;;;;;4977643;29;20438;-94
2023/08/07 10:52:08;;;;;;;3.73;1.83;;;18.80;1.00;;;;;;4977821;28;20462;-93
2023/08/07 10:58:27;;;;;;;;;;;;;;;;;;;;;
2023/08/07 11:01:26;;;;;;;6.60;2.27;;;18.90;1.00;;;;;;4980256;28;20428;-93
2023/08/07 11:07:57;;;;;;;;;;;;;;;;;;;;;
2023/08/07 11:13:35;;;;;;;3.10;1.80;;;;;;;;;;4977816;28;20466;-93
2023/08/07 11:16:28;;;;;;;8.57;4.30;;;18.60;1.00;;;;;;4979805;28;20463;-92
2023/08/07 11:19:26;;;;;;;1.83;1.70;;;18.50;24.60;;;;;;4979735;28;20459;-93
2023/08/07 11:22:11;;;;;;;3.03;2.10;;;18.60;1.00;;;;;;4973704;28;20446;-93
2023/08/07 11:24:50;;;;;;;9.83;2.13;;;18.10;1.00;;;;;;4979588;28;20489;-94
2023/08/07 11:27:41;;;;;;;4.70;2.00;;;18.00;99.90;;;;;;4977825;29;20477;-94
2023/08/07 11:30:42;;;;;;;3.30;1.87;;;18.10;1.00;;;;;;4976201;29;20457;-94
2023/08/07 11:36:23;;;;;;;2.27;2.10;;;18.20;99.90;;;;;;4971814;29;20455;-94
2023/08/07 11:38:57;;;;;;;2.20;1.90;;;18.20;27.50;;;;;;4977582;28;20427;-94
2023/08/07 11:41:40;;;;;;;1.70;1.60;;;18.40;99.90;;;;;;4979727;28;20434;-92
2023/08/07 11:47:48;;;;;;;;;;;;;;;;;;;;;
2023/08/07 11:53:16;;;;;;;1.90;1.80;;;17.90;1.00;;;;;;4968307;28;20493;-93
2023/08/07 11:56:18;;;;;;;3.77;2.47;;;18.00;1.00;;;;;;4983545;28;20472;-93
2023/08/07 11:58:54;;;;;;;4.37;2.97;;;18.10;1.00;;;;;;4983058;28;20441;-95
2023/08/07 12:02:00;;;;;;;5.90;2.20;;;18.40;99.90;;;;;;4980821;28;20437;-94
2023/08/07 12:04:51;;;;;;;2.90;1.90;;;18.50;99.90;;;;;;4975377;28;20484;-94
2023/08/07 12:07:33;;;;;;;2.50;2.30;;;18.70;1.00;;;;;;4980263;29;20443;-94
2023/08/07 12:16:47;;;;;;;3.70;2.33;;;19.00;1.00;;;;;;4980796;29;20445;-94
2023/08/07 12:20:03;;;;;;;2.20;2.03;;;19.10;17.10;;;;;;4982694;28;20434;-94
2023/08/07 12:35:39;;;;;;;4.33;2.20;;;18.90;99.90;;;;;;4512700;23;20478;-95
2023/08/07 12:59:07;;;;;;;5.10;3.60;;;18.90;99.90;;;;;;3198959;26;20482;-92
2023/08/07 13:02:08;;;;;;;3.60;3.30;;;19.00;1.00;;;;;;4981063;29;20427;-92
2023/08/07 13:39:10;;;;;;;6.30;3.00;;;16.90;1.00;;;;;;4979786;28;20486;-94
2023/08/07 13:45:14;;;;;;;4.03;3.07;;;17.10;99.90;;;;;;4900149;29;20495;-94
2023/08/07 13:51:00;;;;;;;2.67;2.43;;;17.70;99.90;;;;;;4895428;29;20422;-93
2023/08/07 14:17:49;;;;;;;4.67;2.70;;;18.40;1.00;;;;;;4877301;29;20470;-93
2023/08/07 14:28:42;;;;;;;4.60;1.90;;;18.70;1.00;;;;;;1342596;26;20607;-92
2023/08/07 14:31:24;;;;;;;4.07;2.00;;;19.10;99.90;;;;;;4999472;28;20553;-92
2023/08/07 14:39:32;;;;;;;4.80;2.80;;;18.90;1.00;;;;;;5046216;23;20485;-92
2023/08/07 14:42:10;;;;;;;3.20;2.30;;;;;;;;;;4979577;28;20449;-93
2023/08/07 14:58:19;;;;;;;6.20;2.33;;;19.00;1.00;;;;;;4975698;28;20442;-92
2023/08/07 15:00:51;;;;;;;8.20;3.23;;;;;;;;;;4980030;28;20451;-93
2023/08/07 15:14:05;;;;;;;4.13;1.73;;;18.80;1.00;;;;;;5008219;23;20494;-93
2023/08/07 15:16:51;;;;;;;4.43;2.53;;;18.80;1.00;;;;;;4977806;28;20481;-93
2023/08/07 16:01:00;;;;;;;3.30;2.77;;;19.10;1.00;;;;;;4977629;23;20477;-92
2023/08/07 16:03:37;;;;;;;4.10;2.70;;;19.00;1.00;;;;;;4976980;28;20446;-92
2023/08/07 16:06:04;;;;;;;5.67;3.30;;;;;;;;;;4966470;29;20418;-91
2023/08/07 16:08:32;;;;;;;7.33;2.53;;;;;;;;;;4967485;29;20457;-92
2023/08/07 16:11:01;;;;;;;6.40;2.90;;;;;;;;;;4968588;29;20441;-92
2023/08/07 16:13:32;;;;;;;8.73;3.57;;;18.90;1.00;;;;;;4979333;28;20438;-92
2023/08/07 16:16:14;;;;;;;9.13;3.57;;;19.00;1.00;;;;;;4978116;28;20435;-94
2023/08/07 16:18:42;;;;;;;4.87;3.20;;;;;;;;;;4973945;29;20461;-93
2023/08/07 16:21:10;;;;;;;3.60;2.60;;;;;;;;;;4970924;29;20654;-93
2023/08/07 16:23:40;;;;;;;3.60;2.50;;;;;;;;;;4970101;29;20462;-93
2023/08/07 16:26:08;;;;;;;7.77;2.30;;;;;;;;;;4975971;28;20454;-93
2023/08/07 16:28:35;;;;;;;4.37;2.80;;;;;;;;;;4979166;28;20505;-93
2023/08/07 16:31:04;;;;;;;3.90;2.17;;;19.70;1.00;;;;;;4978485;28;20449;-92
2023/08/07 16:33:32;;;;;;;5.23;2.30;;;;;;;;;;4972899;29;20446;-93
2023/08/07 16:36:00;;;;;;;8.50;2.10;;;;;;;;;;4974323;29;20497;-93
2023/08/07 16:38:27;;;;;;;6.27;2.40;;;;;;;;;;4979927;28;20501;-94
2023/08/07 16:40:55;;;;;;;4.33;1.87;;;;;;;;;;4975399;29;20438;-93
2023/08/07 16:43:21;;;;;;;5.20;2.40;;;18.80;1.00;;;;;;4973883;29;20470;-93
2023/08/07 16:45:49;;;;;;;3.97;2.40;;;;;;;;;;4972399;29;20490;-94
2023/08/07 16:48:18;;;;;;;5.50;2.40;;;18.70;1.00;;;;;;4969752;29;20518;-93
2023/08/07 16:50:45;;;;;;;5.27;2.40;;;18.70;1.00;;;;;;4971528;29;20458;-91
2023/08/07 16:53:12;;;;;;;3.30;2.33;;;18.60;1.00;;;;;;4975326;29;20486;-93
2023/08/07 16:55:40;;;;;;;4.07;2.40;;;;;;;;;;4975991;29;20477;-94
2023/08/07 16:58:09;;;;;;;2.73;2.10;;;18.50;1.00;;;;;;4981454;28;20473;-92
2023/08/07 17:00:36;;;;;;;5.13;2.10;;;;;;;;;;4982415;28;20446;-91
2023/08/07 17:03:04;;;;;;;3.83;1.90;;;;;;;;;;4978483;28;20450;-93
2023/08/07 17:05:33;;;;;;;7.90;2.63;;;18.50;1.00;;;;;;4972790;29;20506;-93
2023/08/07 17:08:01;;;;;;;5.23;2.27;;;;;;;;;;4974752;29;20458;-93
2023/08/07 17:10:28;;;;;;;6.20;2.57;;;;;;;;;;4972011;29;20541;-92
2023/08/07 17:12:57;;;;;;;3.73;2.10;;;;;;;;;;4975786;29;20486;-92
2023/08/07 17:15:24;;;;;;;6.90;2.40;;;;;;;;;;4971265;29;20484;-92
2023/08/07 17:17:52;;;;;;;5.47;2.10;;;;;;;;;;4974662;29;20438;-92
2023/08/07 17:20:19;;;;;;;3.73;2.30;;;;;;;;;;4973079;29;20437;-93
2023/08/07 17:22:48;;;;;;;4.60;1.63;;;18.10;1.00;;;;;;4971135;29;20463;-91
2023/08/07 17:25:15;;;;;;;4.70;2.30;;;18.30;1.00;;;;;;4971938;29;20493;-93
2023/08/07 17:27:42;;;;;;;6.50;2.47;;;18.20;1.00;;;;;;4973109;29;20471;-92
2023/08/07 17:30:10;;;;;;;2.27;1.80;;;;;;;;;;4973179;29;20449;-91
2023/08/07 17:32:39;;;;;;;6.33;2.07;;;;;;;;;;4972785;29;21014;-91
2023/08/07 17:35:08;;;;;;;3.10;2.80;;;18.20;1.00;;;;;;4978484;28;21021;-94
2023/08/07 17:37:36;;;;;;;3.00;2.43;;;18.10;1.00;;;;;;4971657;29;20456;-93
2023/08/07 17:40:06;;;;;;;3.80;1.80;;;18.30;1.00;;;;;;4978349;28;20442;-91
2023/08/07 17:42:35;;;;;;;6.57;2.80;;;18.10;1.00;;;;;;4980986;29;20434;-92
2023/08/07 17:45:03;;;;;;;6.60;1.77;;;;;;;;;;4980874;28;20486;-91
2023/08/07 17:47:31;;;;;;;3.90;2.67;;;;;;;;;;4981423;28;20481;-90
2023/08/07 17:49:58;;;;;;;5.87;2.90;;;17.90;1.00;;;;;;4978532;28;20450;-92
2023/08/07 17:52:25;;;;;;;4.27;2.00;;;17.80;1.00;;;;;;4975898;29;20465;-91
2023/08/07 17:54:52;;;;;;;9.47;2.20;;;18.00;1.00;;;;;;4974593;29;20546;-92
2023/08/07 17:57:24;;;;;;;4.23;2.00;;;17.80;1.00;;;;;;4979434;28;20445;-91
2023/08/07 17:59:52;;;;;;;9.77;2.47;;;;;;;;;;4980338;28;20558;-91
2023/08/07 18:02:19;;;;;;;4.33;2.00;;;;;;;;;;4977155;29;20401;-93
2023/08/07 18:04:46;;;;;;;5.53;3.43;;;17.70;1.00;;;;;;4974045;28;20538;-93
2023/08/07 18:07:14;;;;;;;4.47;2.43;;;;;;;;;;4971130;28;20493;-92
2023/08/07 18:09:41;;;;;;;4.47;2.83;;;17.60;1.00;;;;;;4972116;29;20946;-92
2023/08/07 18:12:09;;;;;;;5.60;3.83;;;17.60;1.00;;;;;;4973894;29;20429;-93
2023/08/07 18:14:39;;;;;;;4.30;3.30;;;17.60;1.00;;;;;;4971716;29;20475;-92
2023/08/07 18:17:11;;;;;;;6.53;2.77;;;17.50;1.00;;;;;;4972011;29;20912;-91
2023/08/07 18:19:38;;;;;;;10.07;2.60;;;;;;;;;;4975778;28;20469;-92
2023/08/07 18:22:05;;;;;;;3.23;2.27;;;;;;;;;;4970287;29;20521;-92
2023/08/07 18:24:34;;;;;;;6.53;2.63;;;;;;;;;;4972551;29;20520;-92
2023/08/07 18:27:02;;;;;;;3.40;2.30;;;;;;;;;;4977581;28;20448;-91
2023/08/07 18:29:31;;;;;;;4.23;2.20;;;17.40;1.00;;;;;;4976453;29;20448;-93
2023/08/07 18:32:01;;;;;;;2.30;2.10;;;17.30;1.00;;;;;;4975119;29;20466;-93
2023/08/07 18:34:28;;;;;;;6.07;2.40;;;;;;;;;;4973582;29;20819;-94
2023/08/07 18:36:55;;;;;;;4.23;2.70;;;;;;;;;;4975927;29;20462;-93
2023/08/07 18:39:23;;;;;;;5.03;2.77;;;;;;;;;;4977754;28;20440;-93
2023/08/07 18:44:31;;;;;;;4.10;2.70;;;;;;;;;;4977177;29;20548;-92
2023/08/07 18:47:00;;;;;;;8.77;2.77;;;17.20;1.00;;;;;;4975972;29;20441;-92
2023/08/07 18:49:31;;;;;;;6.27;3.63;;;17.10;1.00;;;;;;4975396;28;20459;-92
2023/08/07 18:51:58;;;;;;;6.10;2.97;;;17.00;25.40;;;;;;4974583;29;20589;-93
2023/08/07 18:54:25;;;;;;;9.53;4.77;;;17.20;1.00;;;;;;4973434;29;20477;-93
2023/08/07 18:56:53;;;;;;;9.40;2.77;;;17.20;1.00;;;;;;4974485;28;20465;-92
2023/08/07 18:59:20;;;;;;;7.57;2.90;;;17.20;1.00;;;;;;4971908;29;20491;-92
2023/08/07 19:01:50;;;;;;;5.87;3.10;;;17.10;1.00;;;;;;4976268;28;20452;-93
2023/08/07 19:04:18;;;;;;;4.03;2.67;;;17.20;1.00;;;;;;4978217;29;20504;-92
2023/08/07 19:06:46;;;;;;;5.57;2.50;;;;;;;;;;4976392;29;20480;-92
2023/08/07 19:09:13;;;;;;;5.87;2.93;;;;;;;;;;4978555;28;20440;-91
2023/08/07 19:11:40;;;;;;;4.73;2.77;;;;;;;;;;4980111;28;20453;-92
2023/08/07 19:14:08;;;;;;;3.90;2.10;;;17.20;1.00;;;;;;4980159;28;20458;-92
2023/08/07 19:16:35;;;;;;;8.40;2.77;;;16.80;49.00;;;;;;4980181;28;20436;-91
2023/08/07 19:19:22;;;;;;;9.23;2.50;;;15.90;1.00;;;;;;4980292;28;20439;-92
2023/08/07 19:21:52;;;;;;;4.47;2.60;;;17.00;1.00;;;;;;4978374;28;20437;-93
2023/08/07 19:24:20;;;;;;;3.17;1.90;;;;;;;;;;4974756;29;20470;-91
2023/08/07 19:26:47;;;;;;;4.77;3.03;;;16.90;56.50;;;;;;4972435;29;20922;-92
2023/08/07 19:29:14;;;;;;;2.93;2.20;;;16.80;46.50;;;;;;4971322;29;20443;-92
2023/08/07 19:31:41;;;;;;;6.43;2.50;;;16.60;39.30;;;;;;4975149;28;20456;-93
2023/08/07 19:34:09;;;;;;;6.47;3.33;;;17.10;1.00;;;;;;4976349;28;20470;-91
2023/08/07 19:36:37;;;;;;;5.93;3.13;;;16.70;1.00;;;;;;4973953;29;20461;-90
2023/08/07 19:39:07;;;;;;;4.23;2.87;;;15.80;1.00;;;;;;4969827;29;20452;-92
2023/08/07 19:41:35;;;;;;;6.37;3.00;;;;;;;;;;4973231;28;20473;-92
2023/08/07 19:44:02;;;;;;;2.60;2.13;;;;;;;;;;4971054;29;20483;-92
2023/08/07 19:46:30;;;;;;;4.70;2.77;;;;;;;;;;4969873;29;20499;-93
2023/08/07 19:48:56;;;;;;;5.63;2.23;;;16.30;1.00;;;;;;4968674;29;20474;-92
2023/08/07 19:51:24;;;;;;;3.07;1.87;;;;;;;;;;4968550;29;20530;-90
2023/08/07 19:53:51;;;;;;;4.60;3.30;;;;;;;;;;4969568;29;20471;-94
2023/08/07 19:56:20;;;;;;;2.20;1.80;;;16.30;1.00;;;;;;4970239;29;20482;-92
2023/08/07 19:58:47;;;;;;;5.10;2.57;;;;;;;;;;4979172;28;20450;-91
2023/08/07 20:01:14;;;;;;;4.17;3.40;;;;;;;;;;4980030;28;20503;-91
2023/08/07 20:03:41;;;;;;;1.97;1.87;;;16.50;99.90;;;;;;4979867;28;20419;-92
2023/08/07 20:06:08;;;;;;;4.03;2.63;;;;;;;;;;4979808;28;20488;-90
2023/08/07 20:08:35;;;;;;;5.50;2.90;;;16.20;1.00;;;;;;4977023;29;20455;-92
2023/08/07 20:11:04;;;;;;;4.00;2.20;;;16.00;1.00;;;;;;4975978;29;20459;-92
2023/08/07 20:13:32;;;;;;;4.30;2.10;;;16.10;1.00;;;;;;4978017;28;20492;-92
2023/08/07 20:16:01;;;;;;;6.67;1.80;;;;;;;;;;4980654;28;20446;-92
2023/08/07 20:18:28;;;;;;;6.23;2.77;;;15.80;68.60;;;;;;4983483;28;20458;-91
2023/08/07 20:20:56;;;;;;;2.63;1.63;;;;;;;;;;4983393;28;20432;-91
2023/08/07 20:23:24;;;;;;;4.23;2.00;;;;;;;;;;4983114;28;20435;-93
2023/08/07 20:25:52;;;;;;;4.37;2.10;;;;;;;;;;4983035;28;20463;-90
2023/08/07 20:28:19;;;;;;;6.27;2.57;;;16.10;1.00;;;;;;4981815;28;20498;-93
2023/08/07 20:30:47;;;;;;;3.30;2.30;;;16.10;1.00;;;;;;4980042;29;20446;-93
2023/08/07 20:33:16;;;;;;;4.50;2.20;;;;;;;;;;4979059;28;20449;-93
2023/08/07 20:35:44;;;;;;;4.87;2.33;;;;;;;;;;4978743;29;20492;-93
2023/08/07 20:38:11;;;;;;;4.10;2.73;;;16.10;1.00;;;;;;4976565;29;20459;-93
2023/08/07 20:40:38;;;;;;;5.30;3.37;;;15.50;1.00;;;;;;4974313;29;20425;-93
2023/08/07 20:43:05;;;;;;;5.80;2.97;;;16.10;1.00;;;;;;4972869;29;20481;-93
2023/08/07 20:45:32;;;;;;;2.40;1.80;;;;;;;;;;4972198;29;20535;-93
2023/08/07 20:48:01;;;;;;;3.40;2.07;;;16.10;1.00;;;;;;4974947;29;20484;-92
2023/08/07 20:50:28;;;;;;;6.60;2.73;;;;;;;;;;4974235;29;20478;-93
2023/08/07 20:52:55;;;;;;;3.67;2.20;;;16.00;1.00;;;;;;4974322;29;20527;-95
2023/08/07 20:55:22;;;;;;;6.77;2.60;;;;;;;;;;4972358;29;20521;-95
2023/08/07 20:57:49;;;;;;;4.03;2.07;;;16.00;1.00;;;;;;4972756;29;20546;-94
2023/08/07 21:00:19;;;;;;;6.30;2.93;;;16.00;1.00;;;;;;4972923;28;20986;-93
2023/08/07 21:02:46;;;;;;;3.73;2.13;;;15.90;1.00;;;;;;4972749;29;20478;-93
2023/08/07 21:05:18;;;;;;;3.80;2.20;;;15.80;1.00;;;;;;4972817;29;20483;-92
2023/08/07 21:07:48;;;;;;;2.40;2.03;;;;;;;;;;4976472;29;20443;-92
2023/08/07 21:10:15;;;;;;;5.00;2.70;;;16.00;99.90;;;;;;4979682;28;20436;-92
2023/08/07 21:12:42;;;;;;;3.77;1.83;;;;;;;;;;4975613;28;20474;-92
2023/08/07 21:15:10;;;;;;;7.27;2.50;;;15.80;99.90;;;;;;4970075;29;20526;-92
2023/08/07 21:17:38;;;;;;;2.40;1.80;;;16.20;1.00;;;;;;4972041;29;20471;-92
2023/08/07 21:20:06;;;;;;;7.53;2.60;;;15.80;1.00;;;;;;4978481;29;20434;-94
2023/08/07 21:22:34;;;;;;;3.17;2.07;;;18.10;1.00;;;;;;4980225;28;20489;-92
2023/08/07 21:25:02;;;;;;;3.53;2.30;;;;;;;;;;4979513;28;20461;-93
2023/08/07 21:27:29;;;;;;;4.33;2.40;;;;;;;;;;4978964;28;20509;-93
2023/08/07 21:29:57;;;;;;;4.43;2.30;;;;;;;;;;4980049;28;20485;-94
2023/08/07 21:32:24;;;;;;;5.20;2.37;;;;;;;;;;4979374;29;20486;-92
2023/08/07 21:34:51;;;;;;;6.43;2.43;;;15.80;1.00;;;;;;4978858;29;20474;-91
2023/08/07 21:37:18;;;;;;;6.43;2.07;;;;;;;;;;4973556;29;20530;-93
2023/08/07 21:39:46;;;;;;;5.47;3.20;;;15.60;99.90;;;;;;4975065;28;20441;-93
2023/08/07 21:42:13;;;;;;;3.97;2.73;;;;;;;;;;4981836;28;20434;-91
2023/08/07 21:44:41;;;;;;;11.60;2.70;;;;;;;;;;4980260;28;20455;-92
2023/08/07 21:47:09;;;;;;;4.83;2.57;;;;;;;;;;4979643;28;20487;-93
2023/08/07 21:49:37;;;;;;;4.03;2.93;;;;;;;;;;4976044;29;20449;-92
2023/08/07 21:52:04;;;;;;;3.40;2.30;;;15.70;1.00;;;;;;4977262;29;20514;-92
2023/08/07 21:54:32;;;;;;;7.20;3.03;;;17.50;1.00;;;;;;4975366;29;20495;-92
2023/08/07 21:57:00;;;;;;;4.53;2.57;;;15.70;1.00;;;;;;4973126;29;20488;-92
2023/08/07 21:59:27;;;;;;;5.23;2.50;;;;;;;;;;4970806;29;20454;-93
2023/08/07 22:01:55;;;;;;;3.73;2.30;;;;;;;;;;4970820;28;20498;-93